There are multiple Weather-warnings   Click here for more information


Meteo18 Weather Cam more information Meteo18 Weather Cam


warning for Thunderstorms more information blitzortung!


Rain radar more information rain snow radar


Visit our other weather sites:

Template documentation
and downloads

And another site



Weather Underground History page Text

Daily Summary for January 3, 2016 Units:  Metric    English   Both
« Previous Day
Next Day »
Daily Weekly Monthly Yearly Custom
  High: Low: Average:
Temperature: 7.6 °C 2.2 °C 5.9 °C
Dew Point: 6.9 °C 1.8 °C 5.2 °C
Humidity: 98 % 90 % 95 %
Wind Speed: 11.3 km/h 0.0 km/h 2.3 km/h
Wind Gust: 19.3 km/h - -
Wind:- - WSW
Pressure: 1013.4 hPa 992.4 hPa -
Precipitation: 19.3 mm    
Historical Graphs
 
 
Tabular Data for January 3, 2016
Time Temperature Dew Point Pressure Wind Wind Speed Wind Gust Humidity Rainfall Rate (Hourly)
00:12 6.4 °C 4.9 °C 1013.4 hPa WSW 6.4 km/h 11.3 km/h 90 % 0.0 mm
00:17 6.4 °C 4.9 °C 1013.1 hPa WSW 3.2 km/h 11.3 km/h 90 % 0.0 mm
00:22 6.4 °C 4.9 °C 1013.1 hPa WSW 4.8 km/h 11.3 km/h 90 % 0.0 mm
00:27 6.3 °C 4.8 °C 1013.1 hPa SW 1.6 km/h 11.3 km/h 90 % 0.0 mm
00:37 6.3 °C 4.8 °C 1013.1 hPa SW 3.2 km/h 8.0 km/h 90 % 0.0 mm
00:42 6.3 °C 4.9 °C 1013.1 hPa SW 4.8 km/h 9.7 km/h 91 % 0.0 mm
00:52 6.3 °C 4.9 °C 1013.1 hPa SW 8.0 km/h 9.7 km/h 91 % 0.0 mm
00:57 6.3 °C 4.9 °C 1013.1 hPa SW 3.2 km/h 11.3 km/h 91 % 0.0 mm
01:02 6.2 °C 4.8 °C 1013.1 hPa Calm   11.3 km/h 91 % 0.0 mm
01:07 6.1 °C 4.7 °C 1013.1 hPa SW 3.2 km/h 11.3 km/h 91 % 0.0 mm
01:17 6.1 °C 4.9 °C 1013.1 hPa SW 1.6 km/h 8.0 km/h 92 % 0.0 mm
01:27 6.1 °C 4.9 °C 1013.1 hPa SW 1.6 km/h 9.7 km/h 92 % 0.0 mm
01:32 6.1 °C 4.9 °C 1013.1 hPa WSW 3.2 km/h 9.7 km/h 92 % 0.0 mm
01:37 6.0 °C 4.8 °C 1013.1 hPa WSW 1.6 km/h 9.7 km/h 92 % 0.0 mm
01:42 5.9 °C 4.7 °C 1013.1 hPa SW 3.2 km/h 9.7 km/h 92 % 0.0 mm
01:52 5.9 °C 4.9 °C 1013.1 hPa SW 3.2 km/h 8.0 km/h 93 % 0.0 mm
02:02 5.8 °C 4.9 °C 1012.8 hPa Calm   4.8 km/h 94 % 0.0 mm
02:07 5.8 °C 4.9 °C 1013.1 hPa SW 1.6 km/h 4.8 km/h 94 % 0.0 mm
02:19 5.7 °C 5.0 °C 1012.8 hPa Calm   6.4 km/h 95 % 0.0 mm
02:27 5.6 °C 4.9 °C 1012.8 hPa Calm   3.2 km/h 95 % 0.0 mm
02:32 5.5 °C 4.8 °C 1012.8 hPa Calm   1.6 km/h 95 % 0.0 mm
02:37 5.5 °C 4.8 °C 1012.8 hPa Calm   1.6 km/h 95 % 0.0 mm
02:47 5.6 °C 5.0 °C 1013.1 hPa Calm   1.6 km/h 96 % 0.0 mm
02:52 5.6 °C 5.0 °C 1012.8 hPa SW 1.6 km/h 1.6 km/h 96 % 0.0 mm
02:57 5.6 °C 5.0 °C 1012.8 hPa Calm   1.6 km/h 96 % 0.0 mm
03:02 5.6 °C 5.0 °C 1012.8 hPa Calm   4.8 km/h 96 % 0.0 mm
03:07 5.4 °C 4.8 °C 1012.8 hPa Calm   4.8 km/h 96 % 0.0 mm
03:17 5.5 °C 4.9 °C 1012.8 hPa Calm   3.2 km/h 96 % 0.0 mm
03:27 5.6 °C 5.0 °C 1012.8 hPa Calm   3.2 km/h 96 % 0.0 mm
03:32 5.6 °C 5.0 °C 1012.8 hPa SW 1.6 km/h 3.2 km/h 96 % 0.0 mm
03:42 5.7 °C 5.1 °C 1012.8 hPa Calm   4.8 km/h 96 % 0.0 mm
03:52 5.7 °C 5.1 °C 1012.8 hPa SW 1.6 km/h 3.2 km/h 96 % 0.0 mm
03:57 5.7 °C 5.1 °C 1012.8 hPa Calm   1.6 km/h 96 % 0.0 mm
04:07 5.6 °C 5.0 °C 1012.8 hPa Calm   3.2 km/h 96 % 0.0 mm
04:12 5.4 °C 4.8 °C 1012.8 hPa WSW 1.6 km/h 3.2 km/h 96 % 0.0 mm
04:22 5.3 °C 4.7 °C 1012.4 hPa Calm   3.2 km/h 96 % 0.0 mm
04:27 5.2 °C 4.6 °C 1012.4 hPa SW 1.6 km/h 3.2 km/h 96 % 0.0 mm
04:32 4.9 °C 4.3 °C 1012.4 hPa Calm   3.2 km/h 96 % 0.0 mm
04:42 4.5 °C 3.9 °C 1012.4 hPa SW 1.6 km/h 1.6 km/h 96 % 0.0 mm
04:47 4.4 °C 3.8 °C 1012.1 hPa Calm   3.2 km/h 96 % 0.0 mm
04:57 4.0 °C 3.4 °C 1011.7 hPa Calm   3.2 km/h 96 % 0.0 mm
05:02 3.8 °C 3.2 °C 1011.7 hPa Calm   1.6 km/h 96 % 0.0 mm
05:12 3.4 °C 2.8 °C 1011.4 hPa Calm   1.6 km/h 96 % 0.0 mm
05:17 3.2 °C 2.6 °C 1011.4 hPa Calm   1.6 km/h 96 % 0.0 mm
05:27 3.1 °C 2.7 °C 1011.1 hPa Calm   1.6 km/h 97 % 0.0 mm
05:32 3.0 °C 2.4 °C 1010.7 hPa Calm   1.6 km/h 96 % 0.0 mm
05:37 2.8 °C 2.4 °C 1010.4 hPa Calm   1.6 km/h 97 % 0.0 mm
05:42 2.6 °C 2.0 °C 1010.4 hPa Calm     96 % 0.0 mm
05:47 2.4 °C 1.8 °C 1010.4 hPa Calm     96 % 0.0 mm
05:57 2.2 °C 1.8 °C 1010.4 hPa Calm     97 % 0.0 mm
06:02 2.2 °C 1.8 °C 1010.7 hPa Calm     97 % 0.0 mm
06:12 3.6 °C 3.3 °C 1010.7 hPa Calm   3.2 km/h 98 % 0.0 mm
06:22 4.3 °C 4.0 °C 1010.7 hPa SW 3.2 km/h 6.4 km/h 98 % 0.0 mm
06:32 4.4 °C 4.1 °C 1010.7 hPa SW 1.6 km/h 4.8 km/h 98 % 0.0 mm
06:42 4.4 °C 4.1 °C 1011.1 hPa SW 1.6 km/h 4.8 km/h 98 % 0.0 mm
06:52 4.1 °C 3.5 °C 1010.7 hPa Calm   3.2 km/h 96 % 0.0 mm
07:02 4.0 °C 3.6 °C 1010.7 hPa Calm   1.6 km/h 97 % 0.0 mm
07:07 4.0 °C 3.6 °C 1010.7 hPa Calm   1.6 km/h 97 % 0.0 mm
07:12 4.0 °C 3.6 °C 1010.7 hPa Calm   1.6 km/h 97 % 0.0 mm
07:22 4.0 °C 3.6 °C 1010.4 hPa Calm   1.6 km/h 97 % 0.0 mm
07:27 4.0 °C 3.6 °C 1010.4 hPa Calm   1.6 km/h 97 % 0.0 mm
07:37 4.1 °C 3.7 °C 1010.0 hPa Calm   1.6 km/h 97 % 0.0 mm
07:42 4.1 °C 3.7 °C 1010.0 hPa Calm   1.6 km/h 97 % 0.0 mm
07:52 4.2 °C 3.8 °C 1010.0 hPa Calm   1.6 km/h 97 % 0.3 mm
07:57 4.3 °C 3.9 °C 1010.0 hPa Calm   1.6 km/h 97 % 0.3 mm
08:07 4.3 °C 3.9 °C 1009.7 hPa Calm     97 % 0.3 mm
08:17 4.3 °C 3.9 °C 1009.4 hPa Calm     97 % 0.3 mm
08:22 4.3 °C 3.9 °C 1009.4 hPa Calm     97 % 0.3 mm
08:27 4.3 °C 3.9 °C 1009.4 hPa Calm     97 % 0.3 mm
08:37 4.4 °C 4.0 °C 1009.4 hPa Calm   1.6 km/h 97 % 0.3 mm
08:42 4.4 °C 4.0 °C 1009.4 hPa Calm   1.6 km/h 97 % 0.0 mm
08:52 4.6 °C 4.2 °C 1009.4 hPa Calm     97 % 0.0 mm
09:02 4.7 °C 4.3 °C 1009.0 hPa Calm     97 % 0.0 mm
09:07 4.8 °C 4.4 °C 1009.0 hPa Calm     97 % 0.0 mm
09:12 4.9 °C 4.6 °C 1008.7 hPa Calm     98 % 0.0 mm
09:22 5.1 °C 4.7 °C 1008.7 hPa Calm   1.6 km/h 97 % 0.0 mm
09:32 5.2 °C 4.8 °C 1008.4 hPa Calm   1.6 km/h 97 % 0.0 mm
09:42 5.3 °C 4.9 °C 1008.4 hPa SW 3.2 km/h 8.0 km/h 97 % 0.0 mm
09:52 5.4 °C 4.8 °C 1008.0 hPa SSE 3.2 km/h 3.2 km/h 96 % 0.0 mm
09:57 5.5 °C 4.9 °C 1008.0 hPa WSW 1.6 km/h 6.4 km/h 96 % 0.0 mm
10:02 5.6 °C 5.0 °C 1008.0 hPa SW 1.6 km/h 6.4 km/h 96 % 0.0 mm
10:12 5.7 °C 5.1 °C 1007.7 hPa WSW 3.2 km/h 6.4 km/h 96 % 0.0 mm
10:17 5.8 °C 5.2 °C 1007.3 hPa WSW 4.8 km/h 8.0 km/h 96 % 0.0 mm
10:27 5.9 °C 5.2 °C 1007.3 hPa Calm   8.0 km/h 95 % 0.0 mm
10:39 5.9 °C 5.2 °C 1007.3 hPa SW 3.2 km/h 8.0 km/h 95 % 0.0 mm
10:47 6.0 °C 5.3 °C 1007.3 hPa Calm   8.0 km/h 95 % 0.3 mm
10:52 6.0 °C 5.3 °C 1007.0 hPa WSW 1.6 km/h 8.0 km/h 95 % 0.3 mm
10:57 6.1 °C 5.4 °C 1006.7 hPa WNW 3.2 km/h 8.0 km/h 95 % 0.3 mm
11:09 6.2 °C 5.5 °C 1006.7 hPa Calm   8.0 km/h 95 % 0.3 mm
11:17 6.3 °C 5.6 °C 1006.3 hPa SW 3.2 km/h 8.0 km/h 95 % 0.3 mm
11:27 6.6 °C 5.9 °C 1006.0 hPa Calm   11.3 km/h 95 % 0.3 mm
11:37 6.8 °C 6.1 °C 1005.6 hPa SW 3.2 km/h 11.3 km/h 95 % 0.3 mm
11:42 6.9 °C 6.0 °C 1005.6 hPa Calm   9.7 km/h 94 % 0.3 mm
11:47 7.1 °C 6.2 °C 1005.6 hPa West 3.2 km/h 9.7 km/h 94 % 0.0 mm
11:52 7.1 °C 6.2 °C 1005.6 hPa SW 3.2 km/h 9.7 km/h 94 % 0.0 mm
11:57 7.1 °C 6.0 °C 1005.3 hPa Calm   9.7 km/h 93 % 0.0 mm
12:04 7.1 °C 6.0 °C 1005.0 hPa SW 3.2 km/h 11.3 km/h 93 % 0.0 mm
12:12 7.0 °C 5.9 °C 1004.6 hPa Calm   11.3 km/h 93 % 0.0 mm
12:17 7.0 °C 5.9 °C 1004.6 hPa SW 3.2 km/h 8.0 km/h 93 % 0.0 mm
12:27 7.1 °C 6.0 °C 1004.3 hPa WNW 1.6 km/h 9.7 km/h 93 % 0.0 mm
12:32 7.1 °C 5.9 °C 1004.3 hPa Calm   11.3 km/h 92 % 0.0 mm
12:42 7.1 °C 6.0 °C 1003.9 hPa South 1.6 km/h 11.3 km/h 93 % 0.0 mm
12:47 7.1 °C 6.0 °C 1003.6 hPa Calm   12.9 km/h 93 % 0.3 mm
12:52 7.1 °C 6.0 °C 1003.6 hPa WSW 4.8 km/h 12.9 km/h 93 % 0.3 mm
13:02 7.2 °C 6.1 °C 1002.9 hPa WSW 1.6 km/h 8.0 km/h 93 % 0.3 mm
13:07 7.2 °C 6.0 °C 1002.6 hPa West 4.8 km/h 8.0 km/h 92 % 0.3 mm
13:17 7.3 °C 6.1 °C 1002.6 hPa Calm   9.7 km/h 92 % 0.3 mm
13:27 7.4 °C 6.0 °C 1002.3 hPa WSW 3.2 km/h 11.3 km/h 91 % 0.3 mm
13:37 7.5 °C 6.1 °C 1001.9 hPa West 6.4 km/h 8.0 km/h 91 % 0.3 mm
13:42 7.5 °C 6.1 °C 1001.9 hPa SW 3.2 km/h 8.0 km/h 91 % 0.3 mm
13:49 7.6 °C 6.2 °C 1001.6 hPa Calm   19.3 km/h 91 % 0.0 mm
13:57 7.6 °C 6.1 °C 1001.2 hPa WSW 11.3 km/h 19.3 km/h 90 % 0.0 mm
14:02 7.6 °C 6.2 °C 1000.9 hPa WSW 4.8 km/h 11.3 km/h 91 % 0.0 mm
14:12 7.6 °C 6.1 °C 1000.6 hPa Calm   11.3 km/h 90 % 0.0 mm
14:22 7.4 °C 6.0 °C 1000.2 hPa SSW 3.2 km/h 11.3 km/h 91 % 0.0 mm
14:32 7.3 °C 5.9 °C 1000.2 hPa Calm   12.9 km/h 91 % 0.0 mm
14:37 7.3 °C 5.9 °C 1000.2 hPa West 4.8 km/h 12.9 km/h 91 % 0.0 mm
14:42 7.2 °C 6.0 °C 999.9 hPa Calm   11.3 km/h 92 % 0.0 mm
14:47 7.2 °C 6.0 °C 999.9 hPa West 1.6 km/h 11.3 km/h 92 % 0.0 mm
14:52 7.1 °C 6.0 °C 999.5 hPa South 1.6 km/h 9.7 km/h 93 % 0.0 mm
15:02 7.0 °C 5.9 °C 999.5 hPa West 1.6 km/h 14.5 km/h 93 % 0.3 mm
15:12 6.9 °C 5.8 °C 999.2 hPa Calm   14.5 km/h 93 % 0.3 mm
15:22 6.8 °C 5.9 °C 998.9 hPa SW 3.2 km/h 9.7 km/h 94 % 0.5 mm
15:32 6.7 °C 5.8 °C 998.9 hPa WSW 1.6 km/h 9.7 km/h 94 % 0.8 mm
15:37 6.6 °C 5.7 °C 998.9 hPa Calm   9.7 km/h 94 % 1.0 mm
15:42 6.6 °C 5.7 °C 998.9 hPa West 3.2 km/h 9.7 km/h 94 % 1.3 mm
15:47 6.5 °C 5.8 °C 998.5 hPa WSW 1.6 km/h 11.3 km/h 95 % 1.5 mm
15:52 6.4 °C 5.7 °C 998.5 hPa West 1.6 km/h 11.3 km/h 95 % 1.8 mm
15:57 6.4 °C 5.7 °C 998.2 hPa West 1.6 km/h 11.3 km/h 95 % 1.8 mm
16:07 6.3 °C 5.7 °C 998.2 hPa Calm   4.8 km/h 96 % 2.5 mm
16:13 6.3 °C 5.7 °C 998.2 hPa Calm   4.8 km/h 96 % 2.5 mm
16:22 6.3 °C 5.7 °C 998.2 hPa WNW 1.6 km/h 4.8 km/h 96 % 2.8 mm
16:32 6.2 °C 5.6 °C 997.9 hPa Calm   6.4 km/h 96 % 3.3 mm
16:37 6.2 °C 5.6 °C 997.9 hPa West 1.6 km/h 6.4 km/h 96 % 3.0 mm
16:42 6.2 °C 5.6 °C 997.5 hPa WSW 1.6 km/h 3.2 km/h 96 % 3.3 mm
16:52 6.2 °C 5.6 °C 997.5 hPa Calm   8.0 km/h 96 % 3.3 mm
16:57 6.2 °C 5.6 °C 997.5 hPa SW 1.6 km/h 8.0 km/h 96 % 3.3 mm
17:02 6.1 °C 5.7 °C 997.5 hPa Calm   8.0 km/h 97 % 3.6 mm
17:07 6.1 °C 5.7 °C 997.2 hPa West 1.6 km/h 8.0 km/h 97 % 3.3 mm
17:17 6.1 °C 5.7 °C 996.8 hPa SW 1.6 km/h 8.0 km/h 97 % 3.8 mm
17:24 6.1 °C 5.7 °C 996.8 hPa WSW 1.6 km/h 8.0 km/h 97 % 4.3 mm
17:32 6.0 °C 5.6 °C 996.5 hPa West 1.6 km/h 9.7 km/h 97 % 4.3 mm
17:42 6.0 °C 5.6 °C 996.2 hPa WSW 1.6 km/h 8.0 km/h 97 % 4.1 mm
17:52 6.0 °C 5.6 °C 996.2 hPa West 3.2 km/h 8.0 km/h 97 % 3.8 mm
18:02 6.0 °C 5.6 °C 995.8 hPa West 1.6 km/h 11.3 km/h 97 % 3.6 mm
18:09 5.9 °C 5.5 °C 995.8 hPa WSW 1.6 km/h 11.3 km/h 97 % 3.3 mm
18:17 5.9 °C 5.5 °C 995.5 hPa Calm   8.0 km/h 97 % 3.0 mm
18:22 6.0 °C 5.6 °C 995.5 hPa Calm   9.7 km/h 97 % 2.8 mm
18:27 6.0 °C 5.6 °C 995.1 hPa Calm   9.7 km/h 97 % 2.5 mm
18:37 6.0 °C 5.6 °C 995.1 hPa SSW 6.4 km/h 9.7 km/h 97 % 2.5 mm
18:42 6.0 °C 5.6 °C 995.1 hPa WSW 1.6 km/h 11.3 km/h 97 % 2.5 mm
18:49 6.0 °C 5.6 °C 994.8 hPa West 3.2 km/h 11.3 km/h 97 % 2.5 mm
18:59 6.1 °C 5.7 °C 994.5 hPa SW 4.8 km/h 11.3 km/h 97 % 2.3 mm
19:07 6.1 °C 5.7 °C 994.1 hPa NNE 1.6 km/h 14.5 km/h 97 % 2.0 mm
19:19 6.1 °C 5.7 °C 994.1 hPa SSE 6.4 km/h 14.5 km/h 97 % 1.8 mm
19:27 6.1 °C 5.7 °C 993.8 hPa Calm   9.7 km/h 97 % 1.5 mm
19:32 6.1 °C 5.7 °C 993.5 hPa WSW 3.2 km/h 19.3 km/h 97 % 1.5 mm
19:37 6.1 °C 5.7 °C 993.5 hPa West 3.2 km/h 19.3 km/h 97 % 1.5 mm
19:42 6.1 °C 5.7 °C 993.5 hPa Calm   19.3 km/h 97 % 1.5 mm
19:52 6.1 °C 5.7 °C 993.5 hPa West 1.6 km/h 14.5 km/h 97 % 1.8 mm
20:02 6.1 °C 5.7 °C 993.5 hPa SW 4.8 km/h 12.9 km/h 97 % 2.3 mm
20:07 6.1 °C 5.7 °C 993.5 hPa SW 6.4 km/h 9.7 km/h 97 % 2.3 mm
20:12 6.1 °C 5.7 °C 993.5 hPa SW 6.4 km/h 12.9 km/h 97 % 2.3 mm
20:22 6.2 °C 5.8 °C 993.5 hPa SW 3.2 km/h 12.9 km/h 97 % 2.0 mm
20:32 6.2 °C 5.6 °C 993.5 hPa WSW 3.2 km/h 12.9 km/h 96 % 1.5 mm
20:37 6.3 °C 5.7 °C 993.5 hPa WSW 6.4 km/h 11.3 km/h 96 % 1.5 mm
20:42 6.3 °C 5.7 °C 993.1 hPa SW 4.8 km/h 11.3 km/h 96 % 1.3 mm
20:52 6.4 °C 5.8 °C 993.1 hPa WSW 4.8 km/h 19.3 km/h 96 % 0.5 mm
20:57 6.4 °C 5.8 °C 993.1 hPa West 3.2 km/h 11.3 km/h 96 % 0.5 mm
21:02 6.4 °C 5.8 °C 993.1 hPa WSW 9.7 km/h 11.3 km/h 96 % 0.3 mm
21:07 6.4 °C 5.8 °C 993.1 hPa SW 6.4 km/h 12.9 km/h 96 % 0.0 mm
21:12 6.6 °C 6.0 °C 992.8 hPa WSW 9.7 km/h 12.9 km/h 96 % 0.0 mm
21:19 6.6 °C 6.0 °C 992.8 hPa SW 9.7 km/h 14.5 km/h 96 % 0.3 mm
21:27 6.8 °C 6.2 °C 992.4 hPa WSW 4.8 km/h 14.5 km/h 96 % 0.5 mm
21:32 6.8 °C 6.2 °C 992.4 hPa SW 6.4 km/h 12.9 km/h 96 % 0.5 mm
21:39 6.9 °C 6.3 °C 992.8 hPa SW 9.7 km/h 14.5 km/h 96 % 0.5 mm
21:47 7.1 °C 6.4 °C 992.4 hPa SW 6.4 km/h 17.7 km/h 95 % 0.8 mm
21:54 7.1 °C 6.4 °C 992.8 hPa SW 9.7 km/h 17.7 km/h 95 % 0.8 mm
22:02 7.1 °C 6.4 °C 992.8 hPa SW 8.0 km/h 16.1 km/h 95 % 1.0 mm
22:12 7.1 °C 6.5 °C 992.8 hPa WSW 6.4 km/h 17.7 km/h 96 % 1.0 mm
22:17 7.1 °C 6.5 °C 992.8 hPa WSW 8.0 km/h 17.7 km/h 96 % 1.5 mm
22:29 7.1 °C 6.5 °C 992.8 hPa WSW 4.8 km/h 17.7 km/h 96 % 1.8 mm
22:37 7.2 °C 6.6 °C 992.4 hPa WSW 6.4 km/h 16.1 km/h 96 % 2.3 mm
22:42 7.2 °C 6.6 °C 992.4 hPa WSW 4.8 km/h 16.1 km/h 96 % 2.5 mm
22:47 7.2 °C 6.6 °C 992.4 hPa SW 3.2 km/h 12.9 km/h 96 % 2.3 mm
22:57 7.2 °C 6.6 °C 992.8 hPa WSW 9.7 km/h 12.9 km/h 96 % 2.5 mm
23:07 7.3 °C 6.9 °C 992.4 hPa WSW 3.2 km/h 14.5 km/h 97 % 3.0 mm
23:17 7.4 °C 6.8 °C 992.4 hPa SW 8.0 km/h 14.5 km/h 96 % 2.5 mm
23:22 7.3 °C 6.7 °C 992.4 hPa SW 4.8 km/h 14.5 km/h 96 % 2.3 mm
23:27 7.3 °C 6.7 °C 992.4 hPa SW 4.8 km/h 14.5 km/h 96 % 1.8 mm
23:37 7.3 °C 6.7 °C 992.4 hPa SW 4.8 km/h 17.7 km/h 96 % 1.3 mm
23:42 7.3 °C 6.7 °C 992.4 hPa WSW 8.0 km/h 17.7 km/h 96 % 1.0 mm
23:52 7.2 °C 6.6 °C 992.4 hPa SSW 3.2 km/h 16.1 km/h 96 % 0.8 mm
23:57 7.1 °C 6.5 °C 992.8 hPa WSW 6.4 km/h 16.1 km/h 96 % 0.5 mm
Meteo18
Compliments of Weather Underground - 4 mb

Script developed by  Jim McMurry - jmcmurry@mwt.net Adapted for the template by  Wim van der Kuil - Leuven-Template.eu

You find our weather info also at:

European Weather Network

Weather Underground

Equipment we use:

Weather-station
Davis Vue

Weather-program
Meteohub

Weather-server
Raspberry PI 2 B+

Provider
1 and 1

Davis Vue

Meteohub

Raspberry PI 2 B+

1 and 1